createdAt,value
2022-11-29T00:01:12.718Z,2.42
2022-11-29T00:04:15.409Z,2.57
2022-11-29T00:07:17.717Z,2.45
2022-11-29T00:10:20.366Z,2.41
2022-11-29T00:13:22.634Z,2.59
2022-11-29T00:16:25.243Z,2.45
2022-11-29T00:19:28.098Z,2.63
2022-11-29T00:22:30.593Z,2.47
2022-11-29T00:25:32.856Z,2.50
2022-11-29T00:28:36.629Z,2.59
2022-11-29T00:31:39.855Z,2.61
2022-11-29T00:34:42.711Z,2.65
2022-11-29T00:37:45.225Z,2.63
2022-11-29T00:40:52.016Z,2.64
2022-11-29T00:43:54.679Z,2.69
2022-11-29T00:46:57.210Z,2.63
2022-11-29T00:49:59.475Z,2.52
2022-11-29T00:53:01.980Z,2.64
2022-11-29T00:56:05.523Z,2.47
2022-11-29T00:59:08.024Z,2.45
2022-11-29T01:02:10.288Z,2.34
2022-11-29T01:05:12.898Z,2.23
2022-11-29T01:08:15.596Z,2.33
2022-11-29T01:11:24.227Z,2.48
2022-11-29T01:14:26.529Z,2.45
2022-11-29T01:17:29.053Z,2.33
2022-11-29T01:20:31.539Z,2.32
2022-11-29T01:23:35.539Z,2.22
2022-11-29T01:26:38.094Z,2.17
2022-11-29T01:29:40.723Z,2.22
2022-11-29T01:32:43.005Z,2.28
2022-11-29T01:35:49.865Z,2.26
2022-11-29T01:38:52.509Z,2.28
2022-11-29T01:41:55.075Z,2.43
2022-11-29T01:45:22.377Z,2.21
2022-11-29T01:48:30.943Z,2.16
2022-11-29T01:51:35.924Z,2.23
2022-11-29T01:54:43.776Z,2.18
2022-11-29T01:57:46.825Z,2.06
2022-11-29T02:00:49.541Z,2.22
2022-11-29T02:03:53.678Z,2.20
2022-11-29T02:06:56.200Z,2.10
2022-11-29T02:09:58.758Z,2.19
2022-11-29T02:13:14.853Z,2.31
2022-11-29T02:16:55.029Z,2.16
2022-11-29T02:20:32.960Z,2.31
2022-11-29T02:23:35.153Z,2.29
2022-11-29T02:26:49.858Z,2.26
2022-11-29T02:30:33.792Z,2.18
2022-11-29T02:33:39.196Z,2.26
2022-11-29T02:37:12.658Z,2.11
2022-11-29T02:40:24.309Z,2.16
2022-11-29T02:44:14.334Z,2.23
2022-11-29T02:48:08.832Z,2.14
2022-11-29T02:51:20.105Z,2.01
2022-11-29T02:54:29.839Z,2.04
2022-11-29T02:57:38.097Z,2.03
2022-11-29T03:00:51.587Z,2.07
2022-11-29T03:04:23.701Z,2.00
2022-11-29T03:07:46.733Z,2.11
2022-11-29T03:10:54.729Z,2.12
2022-11-29T03:14:14.738Z,2.13
2022-11-29T03:17:22.319Z,2.16
2022-11-29T03:21:02.662Z,2.17
2022-11-29T03:24:15.800Z,2.08
2022-11-29T03:27:28.958Z,2.01
2022-11-29T03:30:35.131Z,1.83
2022-11-29T03:33:51.472Z,1.97
2022-11-29T03:37:01.106Z,2.13
2022-11-29T03:40:08.354Z,1.98
2022-11-29T03:43:18.155Z,2.03
2022-11-29T03:46:26.892Z,2.13
2022-11-29T03:49:47.853Z,2.20
2022-11-29T03:53:05.178Z,2.21
2022-11-29T03:56:35.892Z,2.06
2022-11-29T04:00:08.116Z,2.13
2022-11-29T04:03:32.277Z,2.09
2022-11-29T04:06:52.229Z,2.19
2022-11-29T04:10:28.432Z,1.98
2022-11-29T04:13:52.183Z,2.13
2022-11-29T04:16:57.182Z,2.04
2022-11-29T04:20:17.742Z,2.12
2022-11-29T04:23:32.633Z,2.14
2022-11-29T04:26:40.788Z,2.02
2022-11-29T04:30:14.155Z,2.05
2022-11-29T04:33:35.265Z,2.09
2022-11-29T04:36:59.186Z,2.10
2022-11-29T04:40:01.610Z,2.02
2022-11-29T04:43:34.654Z,2.02
2022-11-29T04:46:58.815Z,2.01
2022-11-29T04:50:25.675Z,2.05
2022-11-29T04:53:48.053Z,1.85
2022-11-29T04:56:51.539Z,1.99
2022-11-29T05:00:10.018Z,1.97
2022-11-29T05:03:23.483Z,1.72
2022-11-29T05:07:06.450Z,1.76
2022-11-29T05:10:36.929Z,1.78
2022-11-29T05:13:48.366Z,1.85
2022-11-29T05:17:08.831Z,1.83
2022-11-29T05:20:39.379Z,1.86
2022-11-29T05:24:19.322Z,1.86
2022-11-29T05:28:02.505Z,1.84
2022-11-29T05:31:36.412Z,1.85
2022-11-29T05:35:06.680Z,1.82
2022-11-29T05:38:31.825Z,1.85
2022-11-29T05:41:52.354Z,1.86
2022-11-29T05:45:16.988Z,1.89
2022-11-29T05:48:32.609Z,1.79
2022-11-29T05:51:45.975Z,1.57
2022-11-29T05:55:09.955Z,1.67
2022-11-29T05:58:40.846Z,1.74
2022-11-29T06:01:55.933Z,1.77
2022-11-29T06:05:19.933Z,1.81
2022-11-29T06:08:44.890Z,1.77
2022-11-29T06:12:02.449Z,1.85
2022-11-29T06:15:38.061Z,1.62
2022-11-29T06:18:59.269Z,1.65
2022-11-29T06:22:08.131Z,1.76
2022-11-29T06:25:48.449Z,1.89
2022-11-29T06:29:06.616Z,1.82
2022-11-29T06:32:26.192Z,1.82
2022-11-29T06:35:50.264Z,1.74
2022-11-29T06:38:53.000Z,1.86
2022-11-29T06:41:55.320Z,1.77
2022-11-29T06:44:57.957Z,1.54
2022-11-29T06:48:04.961Z,1.76
2022-11-29T06:51:19.711Z,1.86
2022-11-29T06:54:47.504Z,1.85
2022-11-29T06:57:58.222Z,2.07
2022-11-29T07:01:07.186Z,2.09
2022-11-29T07:04:18.619Z,2.10
2022-11-29T07:07:22.769Z,1.96
2022-11-29T07:10:26.882Z,1.92
2022-11-29T07:13:29.457Z,2.06
2022-11-29T07:17:04.035Z,1.98
2022-11-29T07:20:27.061Z,2.02
2022-11-29T07:23:53.092Z,1.93
2022-11-29T07:27:02.500Z,1.91
2022-11-29T07:30:05.274Z,2.17
2022-11-29T07:33:28.815Z,2.06
2022-11-29T07:36:49.462Z,2.09
2022-11-29T07:40:03.090Z,2.15
2022-11-29T07:43:18.402Z,1.95
2022-11-29T07:46:20.702Z,2.13
2022-11-29T07:49:23.283Z,2.19
2022-11-29T07:52:25.554Z,2.13
2022-11-29T07:55:29.749Z,2.08
2022-11-29T07:58:32.335Z,2.03
2022-11-29T08:01:34.943Z,2.18
2022-11-29T08:04:46.879Z,2.16
2022-11-29T08:07:49.565Z,2.26
2022-11-29T08:10:52.189Z,2.21
2022-11-29T08:13:58.404Z,2.31
2022-11-29T08:17:00.976Z,2.31
2022-11-29T08:20:04.489Z,2.23
2022-11-29T08:23:07.722Z,2.08
2022-11-29T08:26:10.038Z,2.19
2022-11-29T08:29:12.980Z,2.10
2022-11-29T08:32:15.372Z,2.04
2022-11-29T08:35:19.732Z,2.19
2022-11-29T08:38:22.557Z,2.31
2022-11-29T08:41:25.150Z,2.20
2022-11-29T08:44:27.632Z,2.21
2022-11-29T08:47:35.797Z,2.49
2022-11-29T08:50:38.161Z,2.16
2022-11-29T08:53:44.603Z,2.29
2022-11-29T08:57:23.510Z,2.26
2022-11-29T09:00:12.626Z,2.43
2022-11-29T09:03:33.637Z,2.48
2022-11-29T09:06:43.114Z,2.44
2022-11-29T09:09:45.421Z,2.52
2022-11-29T09:12:49.663Z,2.40
2022-11-29T09:15:51.977Z,2.45
2022-11-29T09:18:56.043Z,2.58
2022-11-29T09:21:58.280Z,2.33
2022-11-29T09:25:00.851Z,2.46
2022-11-29T09:28:03.486Z,2.57
2022-11-29T09:31:11.261Z,2.62
2022-11-29T09:34:14.878Z,2.56
2022-11-29T09:37:17.443Z,2.64
2022-11-29T09:40:22.844Z,2.65
2022-11-29T09:44:00.720Z,2.76
2022-11-29T09:47:39.744Z,2.65
2022-11-29T09:50:54.116Z,2.66
2022-11-29T09:54:05.439Z,2.40
2022-11-29T09:57:10.785Z,2.65
2022-11-29T10:00:20.057Z,2.70
2022-11-29T10:03:36.384Z,2.60
2022-11-29T10:07:00.391Z,2.61
2022-11-29T10:10:26.121Z,2.47
2022-11-29T10:13:33.439Z,2.49
2022-11-29T10:16:58.751Z,2.43
2022-11-29T10:20:21.672Z,2.42
2022-11-29T10:23:29.326Z,2.50
2022-11-29T10:26:35.122Z,2.78
2022-11-29T10:29:38.640Z,2.94
2022-11-29T10:32:43.528Z,2.92
2022-11-29T10:35:47.778Z,2.83
2022-11-29T10:38:52.322Z,2.74
2022-11-29T10:41:57.713Z,2.85
2022-11-29T10:45:00.409Z,2.87
2022-11-29T10:48:15.879Z,3.02
2022-11-29T10:51:18.799Z,2.85
2022-11-29T10:54:41.841Z,2.95
2022-11-29T10:58:16.095Z,3.12
2022-11-29T11:01:18.767Z,2.94
2022-11-29T11:04:44.720Z,3.05
2022-11-29T11:07:57.422Z,2.97
2022-11-29T11:11:02.104Z,2.88
2022-11-29T11:14:17.169Z,2.83
2022-11-29T11:17:32.903Z,2.67
2022-11-29T11:20:42.275Z,2.88
2022-11-29T11:24:04.452Z,2.75
2022-11-29T11:27:07.198Z,2.83
2022-11-29T11:30:22.550Z,2.93
2022-11-29T11:33:26.561Z,3.04
2022-11-29T11:36:28.960Z,3.08
2022-11-29T11:39:32.273Z,3.05
2022-11-29T11:42:41.039Z,3.16
2022-11-29T11:45:53.165Z,2.99
2022-11-29T11:48:55.580Z,2.91
2022-11-29T11:52:00.393Z,2.94
2022-11-29T11:55:07.603Z,3.04
2022-11-29T11:58:12.900Z,2.79
2022-11-29T12:01:16.986Z,2.93
2022-11-29T12:04:34.060Z,3.02
2022-11-29T12:08:07.260Z,3.12
2022-11-29T12:11:11.839Z,3.05
2022-11-29T12:14:28.227Z,3.04
2022-11-29T12:17:40.012Z,2.89
2022-11-29T12:21:03.799Z,3.03
2022-11-29T12:24:24.647Z,3.04
2022-11-29T12:27:33.032Z,2.98
2022-11-29T12:30:36.012Z,2.88
2022-11-29T12:33:47.380Z,2.93
2022-11-29T12:37:02.561Z,3.11
2022-11-29T12:40:32.613Z,3.08
2022-11-29T12:44:04.036Z,2.94
2022-11-29T12:47:37.087Z,3.03
2022-11-29T12:50:45.952Z,3.09
2022-11-29T12:53:54.227Z,3.16
2022-11-29T12:57:23.958Z,3.27
2022-11-29T13:00:31.571Z,3.07
2022-11-29T13:03:47.610Z,3.28
2022-11-29T13:06:59.537Z,3.09
2022-11-29T13:10:20.315Z,3.24
2022-11-29T13:13:42.742Z,3.37
2022-11-29T13:16:56.806Z,3.36
2022-11-29T13:20:16.486Z,3.35
2022-11-29T13:23:45.688Z,3.37
2022-11-29T13:26:49.772Z,3.50
2022-11-29T13:29:53.810Z,3.44
2022-11-29T13:33:05.101Z,3.53
2022-11-29T13:36:37.194Z,3.44
2022-11-29T13:39:48.420Z,3.44
2022-11-29T13:43:05.735Z,3.41
2022-11-29T13:46:16.385Z,3.40
2022-11-29T13:49:42.765Z,3.23
2022-11-29T13:52:47.239Z,3.41
2022-11-29T13:56:01.398Z,3.47
2022-11-29T13:59:08.777Z,3.54
2022-11-29T14:02:29.912Z,3.41
2022-11-29T14:05:39.863Z,3.47
2022-11-29T14:12:48.895Z,3.39
2022-11-29T14:15:58.629Z,3.55
2022-11-29T14:19:09.282Z,3.55
2022-11-29T14:22:19.469Z,3.37
2022-11-29T14:28:46.971Z,3.51
2022-11-29T14:31:51.822Z,3.54
2022-11-29T14:35:12.490Z,3.42
2022-11-29T14:38:39.198Z,3.57
2022-11-29T14:42:19.130Z,3.44
2022-11-29T14:45:31.127Z,3.53
2022-11-29T14:48:34.343Z,3.57
2022-11-29T14:51:37.470Z,3.56
2022-11-29T14:54:59.272Z,3.61
2022-11-29T14:58:05.952Z,3.60
2022-11-29T15:01:10.869Z,3.52
2022-11-29T15:04:13.920Z,3.67
2022-11-29T15:07:24.710Z,3.58
2022-11-29T15:10:31.595Z,3.55
2022-11-29T15:13:36.567Z,3.64
2022-11-29T15:16:56.346Z,3.65
2022-11-29T15:19:58.522Z,3.62
2022-11-29T15:23:09.752Z,3.65
2022-11-29T15:26:20.599Z,3.68
2022-11-29T15:29:23.613Z,3.71
2022-11-29T15:32:32.786Z,3.63
2022-11-29T15:35:36.756Z,3.57
2022-11-29T15:38:45.370Z,3.69
2022-11-29T15:41:47.968Z,3.78
2022-11-29T15:44:52.943Z,3.65
2022-11-29T15:48:10.310Z,3.64
2022-11-29T15:51:30.406Z,3.57
2022-11-29T15:54:57.027Z,3.53
2022-11-29T15:58:07.031Z,3.48
2022-11-29T16:01:19.274Z,3.45
2022-11-29T16:04:24.623Z,3.53
2022-11-29T16:07:32.388Z,3.59
2022-11-29T16:10:40.615Z,3.47
2022-11-29T16:14:16.673Z,3.33
2022-11-29T16:17:20.990Z,3.30
2022-11-29T16:20:25.863Z,3.34
2022-11-29T16:23:34.114Z,3.29
2022-11-29T16:26:44.082Z,3.48
2022-11-29T16:29:47.521Z,3.30
2022-11-29T16:32:59.469Z,3.30
2022-11-29T16:36:28.805Z,3.41
2022-11-29T16:39:31.586Z,3.53
2022-11-29T16:42:34.965Z,3.57
2022-11-29T16:45:41.712Z,3.53
2022-11-29T16:48:44.373Z,3.35
2022-11-29T16:51:48.365Z,3.58
2022-11-29T16:54:51.800Z,3.64
2022-11-29T16:57:54.164Z,3.55
2022-11-29T17:00:56.775Z,3.51
2022-11-29T17:04:00.536Z,3.48
2022-11-29T17:07:05.823Z,3.48
2022-11-29T17:10:13.415Z,3.40
2022-11-29T17:13:16.053Z,3.38
2022-11-29T17:16:21.261Z,3.52
2022-11-29T17:19:24.520Z,3.48
2022-11-29T17:22:26.846Z,3.54
2022-11-29T17:25:29.432Z,3.63
2022-11-29T17:28:31.755Z,3.67
2022-11-29T17:31:34.433Z,3.65
2022-11-29T17:34:37.270Z,3.63
2022-11-29T17:37:39.862Z,3.57
2022-11-29T17:40:42.193Z,3.70
2022-11-29T17:43:44.813Z,3.73
2022-11-29T17:46:47.001Z,3.85
2022-11-29T17:49:49.562Z,3.72
2022-11-29T17:52:51.843Z,3.73
2022-11-29T17:55:54.408Z,3.68
2022-11-29T17:58:59.071Z,3.90
2022-11-29T18:02:03.923Z,3.76
2022-11-29T18:05:07.137Z,3.72
2022-11-29T18:08:09.517Z,3.77
2022-11-29T18:11:13.348Z,3.76
2022-11-29T18:14:23.787Z,3.73
2022-11-29T18:17:26.718Z,3.79
2022-11-29T18:20:28.916Z,3.71
2022-11-29T18:23:33.841Z,3.87
2022-11-29T18:26:37.379Z,3.88
2022-11-29T18:29:40.000Z,3.82
2022-11-29T18:32:42.231Z,3.83
2022-11-29T18:35:44.784Z,3.82
2022-11-29T18:38:48.167Z,3.79
2022-11-29T18:41:51.181Z,3.74
2022-11-29T18:44:58.638Z,3.77
2022-11-29T18:48:01.647Z,3.75
2022-11-29T18:51:10.245Z,3.72
2022-11-29T18:54:17.594Z,3.74
2022-11-29T18:57:19.883Z,3.81
2022-11-29T19:00:22.653Z,3.64
2022-11-29T19:03:24.945Z,3.78
2022-11-29T19:06:35.582Z,3.66
2022-11-29T19:09:41.380Z,3.53
2022-11-29T19:12:44.032Z,3.73
2022-11-29T19:15:55.976Z,3.85
2022-11-29T19:18:59.713Z,3.78
2022-11-29T19:22:02.548Z,3.86
2022-11-29T19:25:06.025Z,3.79
2022-11-29T19:28:13.897Z,3.80
2022-11-29T19:31:19.272Z,3.85
2022-11-29T19:34:23.599Z,3.83
2022-11-29T19:37:26.195Z,3.72
2022-11-29T19:40:28.521Z,3.76
2022-11-29T19:43:31.616Z,3.73
2022-11-29T19:46:40.071Z,3.90
2022-11-29T19:49:46.582Z,3.88
2022-11-29T19:52:49.403Z,3.93
2022-11-29T19:55:52.173Z,3.89
2022-11-29T19:58:55.342Z,3.88
2022-11-29T20:01:58.161Z,3.82
2022-11-29T20:05:01.379Z,3.84
2022-11-29T20:08:03.882Z,3.83
2022-11-29T20:11:08.047Z,3.95
2022-11-29T20:14:12.051Z,3.95
2022-11-29T20:17:14.727Z,3.95
2022-11-29T20:20:17.090Z,3.91
2022-11-29T20:23:19.783Z,3.92
2022-11-29T20:26:25.422Z,3.88
2022-11-29T20:29:30.997Z,3.93
2022-11-29T20:32:34.976Z,3.75
2022-11-29T20:35:38.332Z,3.90
2022-11-29T20:38:48.781Z,3.72
2022-11-29T20:42:18.843Z,3.81
2022-11-29T20:45:24.266Z,3.88
2022-11-29T20:48:28.875Z,3.87
2022-11-29T20:51:42.978Z,3.89
2022-11-29T20:54:45.570Z,3.93
2022-11-29T20:57:48.039Z,3.76
2022-11-29T21:00:50.638Z,3.91
2022-11-29T21:03:53.266Z,3.81
2022-11-29T21:06:55.963Z,3.81
2022-11-29T21:10:01.405Z,3.91
2022-11-29T21:13:06.043Z,3.91
2022-11-29T21:16:11.117Z,3.80
2022-11-29T21:19:21.320Z,3.92
2022-11-29T21:22:42.706Z,3.83
2022-11-29T21:25:55.018Z,4.01
2022-11-29T21:29:00.466Z,4.05
2022-11-29T21:32:03.624Z,4.07
2022-11-29T21:35:07.071Z,4.09
2022-11-29T21:38:20.114Z,4.06
2022-11-29T21:41:23.740Z,4.08
2022-11-29T21:44:27.706Z,4.14
2022-11-29T21:47:30.577Z,4.10
2022-11-29T21:50:33.100Z,4.00
2022-11-29T21:53:37.082Z,4.05
2022-11-29T21:56:39.876Z,4.04
2022-11-29T21:59:42.622Z,3.99
2022-11-29T22:02:47.947Z,4.19
2022-11-29T22:05:52.647Z,4.18
2022-11-29T22:08:55.016Z,4.23
2022-11-29T22:11:59.058Z,4.25
2022-11-29T22:15:01.384Z,4.31
2022-11-29T22:18:04.511Z,4.25
2022-11-29T22:21:07.455Z,4.28
2022-11-29T22:24:11.463Z,4.30
2022-11-29T22:27:13.778Z,4.27
2022-11-29T22:30:16.815Z,4.29
2022-11-29T22:33:19.064Z,4.28
2022-11-29T22:36:21.894Z,4.23
2022-11-29T22:39:24.306Z,4.22
2022-11-29T22:42:27.238Z,4.07
2022-11-29T22:45:29.545Z,4.27
2022-11-29T22:48:38.161Z,4.24
2022-11-29T22:51:41.598Z,4.31
2022-11-29T22:54:44.753Z,4.30
2022-11-29T22:57:47.773Z,4.35
2022-11-29T23:00:50.307Z,4.35
2022-11-29T23:04:00.970Z,4.33
2022-11-29T23:07:03.540Z,4.14
2022-11-29T23:10:06.525Z,4.18
2022-11-29T23:13:09.080Z,4.30
2022-11-29T23:16:14.264Z,4.28
2022-11-29T23:19:17.378Z,4.25
2022-11-29T23:22:19.637Z,4.20
2022-11-29T23:25:22.371Z,4.28
2022-11-29T23:28:25.622Z,4.26
2022-11-29T23:31:28.755Z,4.25
2022-11-29T23:34:31.235Z,4.25
2022-11-29T23:37:33.726Z,4.30
2022-11-29T23:40:35.969Z,4.27
2022-11-29T23:43:40.656Z,4.45
2022-11-29T23:46:42.962Z,4.43
2022-11-29T23:49:45.581Z,4.46
2022-11-29T23:52:53.891Z,4.48
2022-11-29T23:55:58.417Z,4.52
2022-11-29T23:59:01.379Z,4.53
